Time;durP1;ratioP1;P1;durP2;ratioP2;P2;SDS_P1;SDS_P2;PMS_P1;PMS_P2;Temp;Humidity;BMP_temperature;BMP_pressure;BME280_temperature;BME280_humidity;BME280_pressure;Samples;Min_cycle;Max_cycle;Signal;HPM_P1;HPM_P2
2021/06/21 00:03:21;;;;;;;22.85;6.07;;;;;;;;;;10470820;28;20047;-75
2021/06/21 00:08:22;;;;;;;19.60;5.72;;;;;;;;;;10464990;28;20459;-74
2021/06/21 00:13:24;;;;;;;20.65;5.60;;;;;;;;;;10453910;28;20061;-74
2021/06/21 00:18:26;;;;;;;22.42;6.10;;;;;;;;;;10473210;28;20120;-76
2021/06/21 00:23:27;;;;;;;19.25;5.35;;;;;;;;;;10455549;28;20127;-75
2021/06/21 00:28:29;;;;;;;18.83;6.15;;;;;;;;;;10458053;28;20132;-75
2021/06/21 00:33:30;;;;;;;18.33;5.05;;;;;;;;;;10446660;28;20553;-74
2021/06/21 00:38:32;;;;;;;23.23;5.10;;;;;;;;;;10447173;28;20563;-74
2021/06/21 00:43:34;;;;;;;19.40;4.80;;;;;;;;;;10446193;28;20443;-76
2021/06/21 00:48:35;;;;;;;16.02;4.38;;;;;;;;;;10454589;28;20049;-74
2021/06/21 00:53:37;;;;;;;23.02;5.22;;;;;;;;;;10428179;28;20580;-74
2021/06/21 00:58:39;;;;;;;16.50;4.82;;;;;;;;;;10446505;28;20127;-75
2021/06/21 01:03:41;;;;;;;16.42;4.10;;;;;;;;;;10446355;28;20052;-75
2021/06/21 01:08:42;;;;;;;16.70;4.40;;;;;;;;;;10445382;28;20051;-74
2021/06/21 01:14:02;;;;;;;18.52;4.55;;;;;;;;;;10453187;28;20063;-75
2021/06/21 01:19:15;;;;;;;20.67;5.28;;;;;;;;;;10457416;28;20063;-74
2021/06/21 01:24:40;;;;;;;19.77;4.30;;;;;;;;;;10444487;28;20471;-76
2021/06/21 01:30:02;;;;;;;18.25;4.47;;;;;;;;;;10409155;28;20253;-75
2021/06/21 01:35:05;;;;;;;18.25;4.50;;;;;;;;;;10445239;28;20135;-75
2021/06/21 01:40:07;;;;;;;14.82;3.60;;;;;;;;;;10444225;28;20591;-75
2021/06/21 01:45:10;;;;;;;10.00;3.30;;;;;;;;;;10444770;28;20147;-75
2021/06/21 01:50:11;;;;;;;10.40;3.10;;;;;;;;;;10444050;28;20140;-75
2021/06/21 01:55:14;;;;;;;15.82;3.38;;;;;;;;;;10447101;28;20056;-75
2021/06/21 02:00:16;;;;;;;18.67;3.75;;;;;;;;;;10442779;28;20072;-75
2021/06/21 02:05:18;;;;;;;12.13;2.85;;;;;;;;;;10454303;28;20089;-76
2021/06/21 02:10:21;;;;;;;10.10;3.10;;;;;;;;;;10449943;28;20044;-75
2021/06/21 02:15:23;;;;;;;13.73;3.25;;;;;;;;;;10432850;28;20547;-75
2021/06/21 02:20:25;;;;;;;11.68;2.85;;;;;;;;;;10450651;28;20103;-76
2021/06/21 02:25:26;;;;;;;9.63;2.70;;;;;;;;;;10462928;28;20044;-76
2021/06/21 02:30:28;;;;;;;11.80;2.83;;;;;;;;;;10453745;28;20053;-75
2021/06/21 02:35:29;;;;;;;13.45;2.80;;;;;;;;;;10454798;28;20576;-76
2021/06/21 02:40:31;;;;;;;9.27;3.03;;;;;;;;;;10443106;28;20069;-75
2021/06/21 02:45:33;;;;;;;10.68;2.85;;;;;;;;;;10458867;28;20136;-75
2021/06/21 02:50:36;;;;;;;12.10;2.50;;;;;;;;;;10459170;28;20041;-75
2021/06/21 02:55:50;;;;;;;9.88;2.70;;;;;;;;;;10457785;28;20633;-75
2021/06/21 03:00:52;;;;;;;15.98;3.53;;;;;;;;;;10458818;28;20128;-75
2021/06/21 03:05:55;;;;;;;12.38;2.80;;;;;;;;;;10455485;28;20071;-74
2021/06/21 03:10:58;;;;;;;11.57;2.97;;;;;;;;;;10452061;28;20041;-75
2021/06/21 03:15:59;;;;;;;17.52;3.03;;;;;;;;;;10450443;28;20140;-76
2021/06/21 03:21:01;;;;;;;9.57;2.90;;;;;;;;;;10451109;28;20045;-76
2021/06/21 03:26:04;;;;;;;9.30;2.97;;;;;;;;;;10454433;28;20132;-76
2021/06/21 03:31:07;;;;;;;11.02;2.50;;;;;;;;;;10450478;28;20116;-76
2021/06/21 03:36:09;;;;;;;9.63;3.08;;;;;;;;;;10450319;28;20053;-75
2021/06/21 03:41:11;;;;;;;10.18;2.90;;;;;;;;;;10450004;28;20120;-76
2021/06/21 03:46:12;;;;;;;8.45;2.55;;;;;;;;;;10455360;28;20439;-75
2021/06/21 03:51:14;;;;;;;9.27;2.47;;;;;;;;;;10449970;28;20160;-75
2021/06/21 03:56:15;;;;;;;11.70;2.67;;;;;;;;;;10449382;28;20132;-76
2021/06/21 04:01:17;;;;;;;15.38;3.08;;;;;;;;;;10448746;28;20051;-75
2021/06/21 04:06:18;;;;;;;8.45;2.42;;;;;;;;;;10470987;28;20126;-75
2021/06/21 04:11:20;;;;;;;13.82;2.78;;;;;;;;;;10449137;28;20045;-74
2021/06/21 04:16:21;;;;;;;12.20;2.90;;;;;;;;;;10448585;28;20123;-75
2021/06/21 04:21:23;;;;;;;11.20;2.80;;;;;;;;;;10448563;28;20542;-75
2021/06/21 04:26:25;;;;;;;9.70;2.92;;;;;;;;;;10463781;28;20044;-76
2021/06/21 04:31:26;;;;;;;14.20;3.03;;;;;;;;;;10458411;28;20131;-75
2021/06/21 04:36:28;;;;;;;13.02;3.30;;;;;;;;;;10456732;28;20052;-75
2021/06/21 04:41:29;;;;;;;14.05;3.10;;;;;;;;;;10447921;28;20424;-75
2021/06/21 04:46:33;;;;;;;12.32;3.13;;;;;;;;;;10450478;28;20136;-75
2021/06/21 04:51:35;;;;;;;10.45;3.25;;;;;;;;;;10447357;28;20041;-75
2021/06/21 04:56:37;;;;;;;11.60;3.53;;;;;;;;;;10446501;28;20049;-75
2021/06/21 05:01:39;;;;;;;13.32;3.95;;;;;;;;;;10446714;28;20075;-76
2021/06/21 05:06:41;;;;;;;12.82;3.78;;;;;;;;;;10460116;28;20457;-75
2021/06/21 05:11:46;;;;;;;13.43;3.08;;;;;;;;;;10447232;28;20458;-74
2021/06/21 05:16:47;;;;;;;10.95;3.20;;;;;;;;;;10446505;28;20056;-76
2021/06/21 05:21:49;;;;;;;11.40;3.03;;;;;;;;;;10446094;28;20269;-75
2021/06/21 05:26:50;;;;;;;12.02;3.10;;;;;;;;;;10446104;28;20535;-75
2021/06/21 05:31:52;;;;;;;11.80;3.03;;;;;;;;;;10446039;28;20492;-75
2021/06/21 05:36:54;;;;;;;11.88;3.00;;;;;;;;;;10445938;28;20090;-75
2021/06/21 05:41:56;;;;;;;9.25;3.33;;;;;;;;;;10446112;28;20045;-75
2021/06/21 05:46:57;;;;;;;12.77;3.35;;;;;;;;;;10445561;28;20541;-75
2021/06/21 05:51:58;;;;;;;15.55;3.30;;;;;;;;;;10445682;28;20469;-75
2021/06/21 05:57:01;;;;;;;9.55;2.80;;;;;;;;;;10445108;28;20152;-75
2021/06/21 06:02:02;;;;;;;8.75;2.50;;;;;;;;;;10448977;28;20072;-76
2021/06/21 06:07:04;;;;;;;10.50;2.60;;;;;;;;;;10462462;28;20402;-75
2021/06/21 06:12:06;;;;;;;6.78;2.50;;;;;;;;;;10429293;28;20057;-76
2021/06/21 06:17:07;;;;;;;8.02;2.65;;;;;;;;;;10440736;28;20548;-76
2021/06/21 06:22:11;;;;;;;9.63;2.60;;;;;;;;;;10445344;23;20528;-81
2021/06/21 06:27:12;;;;;;;6.95;2.60;;;;;;;;;;10442689;28;20045;-80
2021/06/21 06:32:14;;;;;;;8.68;2.58;;;;;;;;;;10446370;28;20036;-81
2021/06/21 06:37:15;;;;;;;6.05;1.98;;;;;;;;;;10454187;28;20057;-81
2021/06/21 06:42:17;;;;;;;7.20;2.40;;;;;;;;;;10442007;28;20041;-80
2021/06/21 06:47:19;;;;;;;5.60;2.10;;;;;;;;;;10441509;28;20079;-80
2021/06/21 06:52:23;;;;;;;7.18;2.30;;;;;;;;;;10441182;28;20140;-80
2021/06/21 06:57:24;;;;;;;8.35;2.50;;;;;;;;;;10440885;28;20135;-80
2021/06/21 07:02:26;;;;;;;4.70;2.08;;;;;;;;;;10441101;28;20780;-81
2021/06/21 07:07:27;;;;;;;9.25;2.33;;;;;;;;;;10442473;28;20049;-80
2021/06/21 07:12:29;;;;;;;4.80;2.00;;;;;;;;;;10438535;28;20120;-80
2021/06/21 07:17:31;;;;;;;8.32;2.20;;;;;;;;;;10437326;28;20049;-81
2021/06/21 07:22:32;;;;;;;5.85;2.22;;;;;;;;;;10444799;28;20044;-80
2021/06/21 07:27:34;;;;;;;7.78;2.30;;;;;;;;;;10443810;28;20055;-79
2021/06/21 07:32:35;;;;;;;7.13;2.10;;;;;;;;;;10447728;28;20051;-80
2021/06/21 07:37:37;;;;;;;7.65;2.00;;;;;;;;;;10448022;28;20072;-80
2021/06/21 07:42:39;;;;;;;10.98;2.58;;;;;;;;;;10449302;28;20044;-80
2021/06/21 07:47:40;;;;;;;6.85;2.03;;;;;;;;;;10448131;28;20136;-81
2021/06/21 07:52:42;;;;;;;6.90;1.85;;;;;;;;;;10448904;28;20551;-80
2021/06/21 07:57:43;;;;;;;7.55;2.30;;;;;;;;;;10462216;28;20462;-69
2021/06/21 08:02:45;;;;;;;4.45;1.80;;;;;;;;;;10451544;28;20057;-69
2021/06/21 08:07:47;;;;;;;5.75;1.80;;;;;;;;;;10447593;28;20059;-69
2021/06/21 08:12:48;;;;;;;7.80;2.38;;;;;;;;;;10446495;28;20480;-69
2021/06/21 08:17:50;;;;;;;5.03;2.00;;;;;;;;;;10441231;28;20053;-69
2021/06/21 08:22:52;;;;;;;4.60;2.05;;;;;;;;;;10447104;28;20068;-69
2021/06/21 08:27:53;;;;;;;4.38;1.88;;;;;;;;;;10432600;28;20045;-69
2021/06/21 08:32:55;;;;;;;5.53;1.90;;;;;;;;;;10447180;28;20068;-69
2021/06/21 08:37:57;;;;;;;6.78;1.90;;;;;;;;;;10446202;28;20547;-68
2021/06/21 08:42:59;;;;;;;7.60;2.10;;;;;;;;;;10440378;28;20037;-69
2021/06/21 08:48:05;;;;;;;4.80;1.90;;;;;;;;;;10443346;28;20563;-66
2021/06/21 08:53:08;;;;;;;6.63;2.25;;;;;;;;;;10443595;28;20404;-68
2021/06/21 08:58:10;;;;;;;6.07;1.92;;;;;;;;;;10441581;28;20049;-68
2021/06/21 09:03:12;;;;;;;9.55;1.75;;;;;;;;;;10434204;28;20052;-69
2021/06/21 09:08:14;;;;;;;5.32;1.52;;;;;;;;;;10431389;28;20049;-68
2021/06/21 09:13:16;;;;;;;9.13;1.90;;;;;;;;;;10439496;28;20076;-69
2021/06/21 09:18:25;;;;;;;7.93;1.80;;;;;;;;;;10438808;28;20137;-69
2021/06/21 09:23:30;;;;;;;8.10;1.83;;;;;;;;;;10440191;28;20067;-69
2021/06/21 09:28:35;;;;;;;7.28;1.98;;;;;;;;;;10437920;28;20120;-69
2021/06/21 09:33:37;;;;;;;2.63;1.40;;;;;;;;;;10437433;28;20458;-69
2021/06/21 09:38:38;;;;;;;6.53;1.63;;;;;;;;;;10439433;28;20147;-69
2021/06/21 09:43:40;;;;;;;8.60;1.75;;;;;;;;;;10423505;28;20496;-69
2021/06/21 09:48:44;;;;;;;5.28;1.60;;;;;;;;;;10440715;28;20053;-68
2021/06/21 09:53:55;;;;;;;3.90;1.50;;;;;;;;;;10441693;28;20523;-68
2021/06/21 09:58:57;;;;;;;3.40;1.42;;;;;;;;;;10440880;28;20325;-68
2021/06/21 10:03:58;;;;;;;6.78;1.50;;;;;;;;;;10435603;28;20084;-68
2021/06/21 10:09:03;;;;;;;3.70;1.20;;;;;;;;;;10438647;28;20563;-68
2021/06/21 10:14:06;;;;;;;5.63;1.50;;;;;;;;;;10435398;28;20049;-68
2021/06/21 10:19:08;;;;;;;3.38;1.50;;;;;;;;;;10431972;28;20051;-68
2021/06/21 10:24:13;;;;;;;2.80;1.50;;;;;;;;;;10442001;28;20057;-68
2021/06/21 10:29:15;;;;;;;3.03;1.30;;;;;;;;;;10441133;28;20077;-68
2021/06/21 10:34:17;;;;;;;3.80;1.50;;;;;;;;;;10436731;28;20135;-68
2021/06/21 10:39:20;;;;;;;6.35;1.92;;;;;;;;;;10439940;28;20088;-68
2021/06/21 10:44:34;;;;;;;3.85;1.50;;;;;;;;;;10441556;28;20127;-68
2021/06/21 10:49:36;;;;;;;3.53;1.60;;;;;;;;;;10440010;28;20045;-68
2021/06/21 10:54:37;;;;;;;5.45;1.80;;;;;;;;;;10440977;28;20052;-68
2021/06/21 10:59:39;;;;;;;5.50;1.60;;;;;;;;;;10447414;28;20379;-68
2021/06/21 11:04:40;;;;;;;6.80;1.65;;;;;;;;;;10459915;28;20500;-68
2021/06/21 11:09:44;;;;;;;3.60;1.50;;;;;;;;;;10445715;28;20375;-68
2021/06/21 11:15:08;;;;;;;4.60;1.48;;;;;;;;;;10442423;28;20048;-68
2021/06/21 11:20:29;;;;;;;5.10;1.45;;;;;;;;;;10435141;28;20045;-68
2021/06/21 11:25:32;;;;;;;3.10;1.50;;;;;;;;;;10443161;28;20049;-68
2021/06/21 11:30:35;;;;;;;2.67;1.30;;;;;;;;;;10438116;28;20084;-68
2021/06/21 11:35:58;;;;;;;4.82;1.45;;;;;;;;;;10446822;28;20102;-68
2021/06/21 11:41:26;;;;;;;2.85;1.40;;;;;;;;;;10444861;28;20132;-68
2021/06/21 11:46:34;;;;;;;3.53;1.58;;;;;;;;;;10445131;28;20081;-68
2021/06/21 11:51:36;;;;;;;6.90;1.70;;;;;;;;;;10447709;28;20139;-68
2021/06/21 11:56:38;;;;;;;8.38;2.05;;;;;;;;;;10445997;28;20059;-68
2021/06/21 12:01:39;;;;;;;4.72;1.77;;;;;;;;;;10446230;28;20049;-68
2021/06/21 12:06:41;;;;;;;3.00;1.42;;;;;;;;;;10439370;28;20080;-68
2021/06/21 12:11:47;;;;;;;5.43;1.50;;;;;;;;;;10441854;28;20140;-68
2021/06/21 12:16:49;;;;;;;2.92;1.40;;;;;;;;;;10445500;28;20090;-70
2021/06/21 12:21:51;;;;;;;4.07;1.50;;;;;;;;;;10438942;28;20431;-68
2021/06/21 12:26:54;;;;;;;6.05;1.60;;;;;;;;;;10446097;28;20045;-67
2021/06/21 12:32:01;;;;;;;3.15;1.60;;;;;;;;;;10443887;28;20140;-69
2021/06/21 12:37:10;;;;;;;4.75;1.50;;;;;;;;;;10442160;28;20053;-69
2021/06/21 12:42:11;;;;;;;;;;;;;;;;;;10432268;28;20130;-68
2021/06/21 12:47:31;;;;;;;4.20;1.50;;;;;;;;;;10443759;28;19920;-68
2021/06/21 12:52:34;;;;;;;3.20;1.40;;;;;;;;;;10444713;28;20096;-68
2021/06/21 12:57:49;;;;;;;3.60;1.40;;;;;;;;;;10442122;28;20052;-68
2021/06/21 13:03:05;;;;;;;4.65;1.33;;;;;;;;;;10443566;28;20587;-69
2021/06/21 13:08:08;;;;;;;3.30;1.30;;;;;;;;;;10439590;28;20136;-69
2021/06/21 13:13:10;;;;;;;2.75;1.30;;;;;;;;;;10442224;28;20492;-69
2021/06/21 13:18:12;;;;;;;3.22;1.10;;;;;;;;;;10440412;28;20081;-69
2021/06/21 13:23:15;;;;;;;3.42;1.38;;;;;;;;;;10433702;28;20052;-68
2021/06/21 13:28:17;;;;;;;2.78;1.50;;;;;;;;;;10442291;28;20045;-68
2021/06/21 13:33:21;;;;;;;3.75;1.50;;;;;;;;;;10441481;28;20132;-68
2021/06/21 13:38:26;;;;;;;3.50;1.50;;;;;;;;;;10432531;28;20148;-68
2021/06/21 13:43:32;;;;;;;5.93;1.50;;;;;;;;;;10440223;28;20076;-69
2021/06/21 13:48:34;;;;;;;3.10;1.30;;;;;;;;;;10442209;28;20127;-68
2021/06/21 13:53:37;;;;;;;2.80;1.33;;;;;;;;;;10428931;28;20072;-68
2021/06/21 13:58:40;;;;;;;2.08;1.10;;;;;;;;;;10442484;28;20128;-68
2021/06/21 14:03:42;;;;;;;2.35;1.10;;;;;;;;;;10441126;28;20076;-68
2021/06/21 14:08:44;;;;;;;2.08;1.00;;;;;;;;;;10438711;28;20055;-68
2021/06/21 14:13:46;;;;;;;1.65;1.00;;;;;;;;;;10440752;28;20041;-69
2021/06/21 14:18:48;;;;;;;2.15;1.10;;;;;;;;;;10440809;28;20135;-68
2021/06/21 14:23:49;;;;;;;2.13;1.45;;;;;;;;;;10433366;28;20055;-68
2021/06/21 14:28:51;;;;;;;2.20;1.30;;;;;;;;;;10440885;28;20171;-68
2021/06/21 14:33:53;;;;;;;4.10;1.80;;;;;;;;;;10448713;28;20533;-69
2021/06/21 14:38:55;;;;;;;4.55;2.08;;;;;;;;;;10446996;28;20063;-68
2021/06/21 14:43:56;;;;;;;3.70;2.05;;;;;;;;;;10448842;28;20408;-69
2021/06/21 14:48:58;;;;;;;2.75;1.90;;;;;;;;;;10448089;28;20133;-68
2021/06/21 14:54:00;;;;;;;3.25;1.70;;;;;;;;;;10445887;28;20056;-68
2021/06/21 14:59:02;;;;;;;3.03;1.60;;;;;;;;;;10448531;28;20479;-68
2021/06/21 15:04:04;;;;;;;6.32;1.70;;;;;;;;;;10448293;28;20053;-68
2021/06/21 15:09:06;;;;;;;3.15;1.50;;;;;;;;;;10438102;28;20095;-68
2021/06/21 15:14:10;;;;;;;3.15;1.90;;;;;;;;;;10446170;28;20515;-68
2021/06/21 15:19:12;;;;;;;2.78;1.70;;;;;;;;;;10446540;28;20132;-68
2021/06/21 15:24:14;;;;;;;2.80;1.80;;;;;;;;;;10425827;28;20516;-68
2021/06/21 15:29:15;;;;;;;3.28;1.90;;;;;;;;;;10446485;28;20107;-68
2021/06/21 15:34:17;;;;;;;2.88;2.10;;;;;;;;;;10447027;28;20144;-68
2021/06/21 15:39:18;;;;;;;2.47;2.00;;;;;;;;;;10444270;28;20479;-68
2021/06/21 15:44:20;;;;;;;4.65;2.50;;;;;;;;;;10446001;28;20055;-68
2021/06/21 15:49:22;;;;;;;5.03;2.60;;;;;;;;;;10405639;28;20566;-68
2021/06/21 15:54:23;;;;;;;5.03;2.95;;;;;;;;;;10444262;28;20041;-68
2021/06/21 15:59:25;;;;;;;4.20;2.80;;;;;;;;;;10446898;28;20578;-68
2021/06/21 16:04:26;;;;;;;3.67;2.88;;;;;;;;;;10444329;28;20059;-68
2021/06/21 16:09:28;;;;;;;3.70;2.80;;;;;;;;;;10447602;28;20506;-68
2021/06/21 16:14:29;;;;;;;3.83;2.78;;;;;;;;;;10433951;28;20139;-67
2021/06/21 16:19:31;;;;;;;5.50;3.10;;;;;;;;;;10446093;28;20156;-68
2021/06/21 16:24:35;;;;;;;5.68;2.75;;;;;;;;;;10434014;28;20179;-68
2021/06/21 16:29:37;;;;;;;3.90;2.92;;;;;;;;;;10445657;28;20060;-68
2021/06/21 16:34:38;;;;;;;4.95;3.00;;;;;;;;;;10443245;28;20084;-68
2021/06/21 16:39:40;;;;;;;4.05;3.13;;;;;;;;;;10444519;28;20135;-67
2021/06/21 16:44:41;;;;;;;4.80;3.10;;;;;;;;;;10405415;28;20128;-68
2021/06/21 16:49:43;;;;;;;5.50;3.58;;;;;;;;;;10443230;28;20132;-68
2021/06/21 16:54:45;;;;;;;4.28;3.47;;;;;;;;;;10443397;28;20102;-68
2021/06/21 16:59:47;;;;;;;4.38;3.50;;;;;;;;;;10443979;28;20485;-68
2021/06/21 17:04:48;;;;;;;4.57;3.20;;;;;;;;;;10442110;28;20071;-67
2021/06/21 17:09:50;;;;;;;6.68;3.40;;;;;;;;;;10442761;28;20045;-68
2021/06/21 17:14:52;;;;;;;4.60;3.30;;;;;;;;;;10441755;28;20700;-68
2021/06/21 17:19:53;;;;;;;5.47;3.10;;;;;;;;;;10417667;28;20073;-68
2021/06/21 17:24:55;;;;;;;4.30;3.40;;;;;;;;;;10405556;28;20489;-68
2021/06/21 17:29:57;;;;;;;4.28;3.05;;;;;;;;;;10441117;28;20072;-67
2021/06/21 17:34:59;;;;;;;4.13;3.17;;;;;;;;;;10441581;28;20542;-67
2021/06/21 17:40:00;;;;;;;9.15;3.00;;;;;;;;;;10441695;28;20057;-68
2021/06/21 17:45:04;;;;;;;3.78;2.78;;;;;;;;;;10443416;28;20106;-68
2021/06/21 17:50:06;;;;;;;3.60;2.42;;;;;;;;;;10440707;28;20107;-69
2021/06/21 17:55:12;;;;;;;3.20;2.20;;;;;;;;;;10443421;28;20041;-69
2021/06/21 18:00:24;;;;;;;2.50;1.95;;;;;;;;;;10442027;28;20045;-69
2021/06/21 18:05:27;;;;;;;4.93;2.30;;;;;;;;;;10439763;28;20158;-69
2021/06/21 18:10:29;;;;;;;2.63;2.10;;;;;;;;;;10440761;28;20087;-69
2021/06/21 18:15:31;;;;;;;4.28;2.40;;;;;;;;;;10441776;28;20055;-68
2021/06/21 18:20:33;;;;;;;3.63;2.60;;;;;;;;;;10439225;28;20079;-68
2021/06/21 18:25:37;;;;;;;3.58;2.88;;;;;;;;;;10440919;28;20127;-68
2021/06/21 18:30:39;;;;;;;3.40;2.75;;;;;;;;;;10439600;28;20060;-68
2021/06/21 18:35:42;;;;;;;4.15;2.83;;;;;;;;;;10440122;28;20048;-67
2021/06/21 18:40:45;;;;;;;3.75;2.80;;;;;;;;;;10441232;28;20469;-68
2021/06/21 18:45:47;;;;;;;3.58;2.55;;;;;;;;;;10441649;28;20071;-68
2021/06/21 18:50:48;;;;;;;3.83;2.47;;;;;;;;;;10440753;28;20064;-67
2021/06/21 18:55:50;;;;;;;4.28;2.63;;;;;;;;;;10441419;28;20137;-69
2021/06/21 19:00:52;;;;;;;3.75;2.40;;;;;;;;;;10441921;28;20087;-68
2021/06/21 19:05:53;;;;;;;3.60;3.10;;;;;;;;;;10437746;28;20481;-68
2021/06/21 19:10:55;;;;;;;4.13;3.40;;;;;;;;;;10440781;28;20127;-68
2021/06/21 19:15:57;;;;;;;4.50;3.90;;;;;;;;;;10440992;28;20053;-68
2021/06/21 19:20:58;;;;;;;6.13;3.78;;;;;;;;;;10447520;28;20423;-68
2021/06/21 19:26:00;;;;;;;5.10;4.60;;;;;;;;;;10449051;28;20049;-69
2021/06/21 19:31:02;;;;;;;5.95;3.80;;;;;;;;;;10432367;28;20044;-68
2021/06/21 19:36:06;;;;;;;4.90;4.32;;;;;;;;;;10448152;28;20486;-68
2021/06/21 19:41:08;;;;;;;5.03;4.43;;;;;;;;;;10447358;28;20063;-68
2021/06/21 19:46:09;;;;;;;6.05;4.53;;;;;;;;;;10446843;28;20091;-68
2021/06/21 19:51:11;;;;;;;6.30;4.50;;;;;;;;;;10445648;28;20045;-68
2021/06/21 19:56:13;;;;;;;5.38;4.50;;;;;;;;;;10448158;28;20131;-69
2021/06/21 20:01:14;;;;;;;5.25;4.10;;;;;;;;;;10445708;28;20124;-68
2021/06/21 20:06:19;;;;;;;5.82;4.43;;;;;;;;;;10447367;28;20048;-68
2021/06/21 20:11:22;;;;;;;5.85;4.68;;;;;;;;;;10446897;28;20062;-68
2021/06/21 20:16:27;;;;;;;7.15;4.43;;;;;;;;;;10444794;28;20404;-68
2021/06/21 20:21:29;;;;;;;5.22;4.30;;;;;;;;;;10418818;28;20516;-68
2021/06/21 20:26:31;;;;;;;5.53;4.60;;;;;;;;;;10460951;28;20131;-68
2021/06/21 20:31:33;;;;;;;5.88;4.10;;;;;;;;;;10439140;28;20041;-77
2021/06/21 20:36:36;;;;;;;4.75;4.15;;;;;;;;;;10443114;28;20056;-77
2021/06/21 20:41:38;;;;;;;4.53;3.90;;;;;;;;;;10443136;28;20044;-79
2021/06/21 20:46:39;;;;;;;4.47;3.00;;;;;;;;;;10430929;28;21382;-78
2021/06/21 20:51:41;;;;;;;4.10;2.65;;;;;;;;;;10439350;28;20124;-78
2021/06/21 20:56:43;;;;;;;3.55;2.45;;;;;;;;;;10444043;28;20041;-79
2021/06/21 21:01:44;;;;;;;3.22;2.53;;;;;;;;;;10440103;28;20208;-78
2021/06/21 21:06:46;;;;;;;5.00;2.13;;;;;;;;;;10439392;28;20504;-78
2021/06/21 21:16:22;;;;;;;5.00;2.15;;;;;;;;;;10647416;27;20845;-60
2021/06/21 21:21:24;;;;;;;3.97;2.20;;;;;;;;;;10612486;27;20059;-60
2021/06/21 21:26:31;;;;;;;3.22;2.47;;;;;;;;;;10623802;27;20493;-60
2021/06/21 21:31:33;;;;;;;3.78;2.15;;;;;;;;;;10600607;27;20700;-59
2021/06/21 21:36:35;;;;;;;3.00;2.00;;;;;;;;;;10585879;27;20051;-60
2021/06/21 21:41:37;;;;;;;4.03;2.55;;;;;;;;;;10589664;27;20044;-59
2021/06/21 21:46:39;;;;;;;4.47;2.17;;;;;;;;;;10599745;27;20040;-60
2021/06/21 21:51:41;;;;;;;4.43;2.42;;;;;;;;;;10611163;27;20043;-60
2021/06/21 21:56:42;;;;;;;5.00;2.50;;;;;;;;;;10610587;27;20106;-59
2021/06/21 22:01:45;;;;;;;3.75;2.58;;;;;;;;;;10608220;27;20096;-58
2021/06/21 22:06:47;;;;;;;3.00;2.35;;;;;;;;;;10609816;27;20094;-58
2021/06/21 22:11:48;;;;;;;3.25;2.20;;;;;;;;;;10630595;27;20415;-58
2021/06/21 22:16:50;;;;;;;3.50;2.10;;;;;;;;;;10622399;27;20130;-58
2021/06/21 22:21:51;;;;;;;3.00;1.92;;;;;;;;;;10629923;27;20047;-58
2021/06/21 22:26:53;;;;;;;2.88;1.83;;;;;;;;;;10597325;27;20051;-58
2021/06/21 22:31:54;;;;;;;2.22;1.70;;;;;;;;;;10601154;27;20482;-58
2021/06/21 22:36:56;;;;;;;3.75;1.63;;;;;;;;;;10593289;27;20083;-59
2021/06/21 22:41:58;;;;;;;2.97;1.50;;;;;;;;;;10599661;27;20142;-59
2021/06/21 22:46:59;;;;;;;5.18;1.70;;;;;;;;;;10590447;27;20130;-59
2021/06/21 22:52:02;;;;;;;2.28;1.50;;;;;;;;;;10585538;27;20050;-59
2021/06/21 22:57:04;;;;;;;2.05;1.50;;;;;;;;;;10602691;27;20586;-59
2021/06/21 23:02:05;;;;;;;2.50;1.40;;;;;;;;;;10586065;27;20074;-59
2021/06/21 23:07:07;;;;;;;2.70;1.40;;;;;;;;;;10581732;27;20082;-59
2021/06/21 23:12:09;;;;;;;2.10;1.20;;;;;;;;;;10611488;27;20058;-59
2021/06/21 23:17:10;;;;;;;1.30;1.20;;;;;;;;;;10578168;27;20070;-59
2021/06/21 23:22:12;;;;;;;2.22;1.30;;;;;;;;;;10575389;27;20054;-58
2021/06/21 23:27:13;;;;;;;2.20;1.30;;;;;;;;;;10537948;27;20122;-58
2021/06/21 23:32:15;;;;;;;5.07;1.33;;;;;;;;;;10614428;27;20047;-58
2021/06/21 23:37:16;;;;;;;1.55;1.30;;;;;;;;;;10574469;27;20154;-58
2021/06/21 23:42:18;;;;;;;1.83;1.35;;;;;;;;;;10582757;27;20053;-59
2021/06/21 23:47:20;;;;;;;4.78;1.60;;;;;;;;;;10582609;27;20075;-58
2021/06/21 23:52:21;;;;;;;6.13;1.60;;;;;;;;;;10579491;27;20075;-58
2021/06/21 23:57:23;;;;;;;2.17;1.60;;;;;;;;;;10615945;27;20133;-58
